Helena — SCGL — position and weather

sailwx.info

Track history (hours):
 
Tides and Currents Weather Stations Pressure Air Temp Water Temp Dewpoint Dewpoint Depression Visibility Wind Speed Wind Dir Waves Ship Positions

Helena

Last reported at 2016-Jul-05 06:28 UTC. Time now 2016-Dec-08 02:16 UTC.
Position N 53°54' E 010°47'.
Warning: this ship's position is months out of date.

Length 169 m; draft 6.7 m.

Type: Cargo ship. MMSI: 265145000.

Date/timePositionNaut miles runAvg speedWind from/ knotsBaromVisibWave heightAir tempDewpointWater temp
2016-Jul-05 06:28N 53°54' E 010°47'19 0.4
2016-Jul-03 06:11N 54°07' E 011°10'1015.3
2016-Jul-03 05:33N 54°13' E 011°23'1515.2
2016-Jul-03 04:33N 54°21' E 011°46'1514.7
2016-Jul-03 03:33N 54°27' E 012°09'7214.4
2016-Jul-02 22:33N 55°03' E 013°57'1515.2
2016-Jul-02 21:33N 55°13' E 014°17'1515.5
2016-Jul-02 20:33N 55°25' E 014°34'1515.4
2016-Jul-02 19:33N 55°33' E 014°57'1915.8
2016-Jul-02 18:23N 55°43' E 015°25'  
2016-Jun-28 20:33N 59°52' E 019°37'28115.3
2016-Jun-28 02:08N 55°42' E 015°35'1016.9
2016-Jun-28 01:32N 55°37' E 015°19'1717.2
2016-Jun-28 00:33N 55°29' E 014°53'1716.7
2016-Jun-27 23:33N 55°18' E 014°30'1716.9
2016-Jun-27 22:34N 55°05' E 014°12'1616.0
2016-Jun-27 21:33N 54°57' E 013°48'1616.3
2016-Jun-27 20:33N 54°52' E 013°21'3915.6
2016-Jun-27 18:05N 54°34' E 012°22'815.9
2016-Jun-27 17:33N 54°27' E 012°13'1615.9
2016-Jun-27 16:33N 54°20' E 011°49'1616.5
2016-Jun-27 15:33N 54°11' E 011°25'10 0.8
2016-Jun-27 02:31N 54°07' E 011°09'1313.7
2016-Jun-27 01:33N 54°14' E 011°27'1413.5
2016-Jun-27 00:33N 54°21' E 011°47'1313.3
2016-Jun-26 23:33N 54°27' E 012°08'4212.6
2016-Jun-26 20:14N 54°52' E 013°05'1013.3
2016-Jun-26 19:27N 54°55' E 013°22'1213.6
2016-Jun-26 18:33N 54°59' E 013°43'1313.5
2016-Jun-26 17:34N 55°04' E 014°05'1110.6
2016-Jun-26 16:34N 55°12' E 014°17'9 9.0
2016-Jun-26 15:34N 55°19' E 014°26'9 9.0
2016-Jun-26 14:34N 55°26' E 014°37'9 8.9
2016-Jun-26 13:33N 55°31' E 014°50'9 9.3
2016-Jun-26 12:33N 55°36' E 015°04'9 9.0
2016-Jun-26 11:33N 55°40' E 015°18'  
Track history (hours):
 
Tides and Currents Weather Stations Pressure Air Temp Water Temp Dewpoint Dewpoint Depression Visibility Wind Speed Wind Dir Waves Ship Positions

Helena

Last reported at 2016-Jul-05 06:28 UTC. Time now 2016-Dec-08 02:16 UTC.
Position N 53°54' E 010°47'.
Warning: this ship's position is months out of date.

Length 169 m; draft 6.7 m.

Type: Cargo ship. MMSI: 265145000.

Date/timePositionNaut miles runAvg speedWind from/ knotsBaromVisibWave heightAir tempDewpointWater temp
2016-Jul-05 06:28N 53°54' E 010°47'19 0.4
2016-Jul-03 06:11N 54°07' E 011°10'1015.3
2016-Jul-03 05:33N 54°13' E 011°23'1515.2
2016-Jul-03 04:33N 54°21' E 011°46'1514.7
2016-Jul-03 03:33N 54°27' E 012°09'7214.4
2016-Jul-02 22:33N 55°03' E 013°57'1515.2
2016-Jul-02 21:33N 55°13' E 014°17'1515.5
2016-Jul-02 20:33N 55°25' E 014°34'1515.4
2016-Jul-02 19:33N 55°33' E 014°57'1915.8
2016-Jul-02 18:23N 55°43' E 015°25'  
2016-Jun-28 20:33N 59°52' E 019°37'28115.3
2016-Jun-28 02:08N 55°42' E 015°35'1016.9
2016-Jun-28 01:32N 55°37' E 015°19'1717.2
2016-Jun-28 00:33N 55°29' E 014°53'1716.7
2016-Jun-27 23:33N 55°18' E 014°30'1716.9
2016-Jun-27 22:34N 55°05' E 014°12'1616.0
2016-Jun-27 21:33N 54°57' E 013°48'1616.3
2016-Jun-27 20:33N 54°52' E 013°21'3915.6
2016-Jun-27 18:05N 54°34' E 012°22'815.9
2016-Jun-27 17:33N 54°27' E 012°13'1615.9
2016-Jun-27 16:33N 54°20' E 011°49'1616.5
2016-Jun-27 15:33N 54°11' E 011°25'10 0.8
2016-Jun-27 02:31N 54°07' E 011°09'1313.7
2016-Jun-27 01:33N 54°14' E 011°27'1413.5
2016-Jun-27 00:33N 54°21' E 011°47'1313.3
2016-Jun-26 23:33N 54°27' E 012°08'4212.6
2016-Jun-26 20:14N 54°52' E 013°05'1013.3
2016-Jun-26 19:27N 54°55' E 013°22'1213.6
2016-Jun-26 18:33N 54°59' E 013°43'1313.5
2016-Jun-26 17:34N 55°04' E 014°05'1110.6
2016-Jun-26 16:34N 55°12' E 014°17'9 9.0
2016-Jun-26 15:34N 55°19' E 014°26'9 9.0
2016-Jun-26 14:34N 55°26' E 014°37'9 8.9
2016-Jun-26 13:33N 55°31' E 014°50'9 9.3
2016-Jun-26 12:33N 55°36' E 015°04'9 9.0
2016-Jun-26 11:33N 55°40' E 015°18'  

Dump ship's entire track history